Time;durP1;ratioP1;P1;durP2;ratioP2;P2;SDS_P1;SDS_P2;PMS_P1;PMS_P2;Temp;Humidity;BMP_temperature;BMP_pressure;BME280_temperature;BME280_humidity;BME280_pressure;Samples;Min_cycle;Max_cycle;Signal;HPM_P1;HPM_P2
2021/06/04 00:00:16;;;;;;;4.3;3.4;;;;;;;17.56;65.34961;942.8798;;;;
2021/06/04 00:02:43;;;;;;;7.8;3.8;;;;;;;17.55;65.21973;942.8807;;;;
2021/06/04 00:05:08;;;;;;;4.8;3.5;;;;;;;17.59;65.3291;942.8264;;;;
2021/06/04 00:07:34;;;;;;;4.1;3.1;;;;;;;17.53;65.27441;942.8697;;;;
2021/06/04 00:09:59;;;;;;;6;3.5;;;;;;;17.46;65.89063;942.8824;;;;
2021/06/04 00:26:05;;;;;;;5.5;3.8;;;;;;;17.57;65.02441;942.8901;;;;
2021/06/04 00:28:32;;;;;;;4.6;3.7;;;;;;;17.52;65.5752;942.8697;;;;
2021/06/04 00:30:57;;;;;;;6.9;3.8;;;;;;;17.55;65.34668;942.8862;;;;
2021/06/04 00:33:28;;;;;;;7;3.7;;;;;;;17.57;65.47754;942.8853;;;;
2021/06/04 00:35:53;;;;;;;6;4.4;;;;;;;17.45;66.28516;942.8769;;;;
2021/06/04 00:38:18;;;;;;;4.9;4.2;;;;;;;17.38;66.14453;942.9063;;;;
2021/06/04 00:40:43;;;;;;;4;3.6;;;;;;;17.33;66.68359;942.93;;;;
2021/06/04 00:43:08;;;;;;;6.2;3.8;;;;;;;17.32;66.77441;942.947;;;;
2021/06/04 00:45:33;;;;;;;7.4;4.1;;;;;;;17.27;66.60352;942.921;;;;
2021/06/04 00:47:59;;;;;;;7.1;4.2;;;;;;;17.3;66.43555;942.9899;;;;
2021/06/04 00:50:24;;;;;;;5.4;4.3;;;;;;;17.34;66.45215;942.9709;;;;
2021/06/04 00:52:49;;;;;;;4.5;4.1;;;;;;;17.49;66.43945;942.899;;;;
2021/06/04 00:55:16;;;;;;;5.6;3.8;;;;;;;17.58;65.61816;942.9272;;;;
2021/06/04 00:58:31;;;;;;;5.1;4.2;;;;;;;17.67;65.29492;942.9644;;;;
2021/06/04 01:00:56;;;;;;;5;3.9;;;;;;;17.67;64.99316;942.9467;;;;
2021/06/04 01:03:22;;;;;;;4.7;4.2;;;;;;;17.46;65.83203;942.954;;;;
2021/06/04 01:05:46;;;;;;;5.6;3.8;;;;;;;17.23;66.38965;942.9542;;;;
2021/06/04 01:08:14;;;;;;;4.5;3.7;;;;;;;17.33;66.08008;942.9509;;;;
2021/06/04 01:10:39;;;;;;;5.6;4.1;;;;;;;17.41;66.60254;942.9292;;;;
2021/06/04 01:13:05;;;;;;;7;4.2;;;;;;;17.46;66.11035;942.9291;;;;
2021/06/04 01:16:40;;;;;;;5.2;4.3;;;;;;;17.48;65.8584;942.9563;;;;
2021/06/04 01:18:56;;;;;;;5.5;4.5;;;;;;;17.51;66.17676;942.985;;;;
2021/06/04 01:21:21;;;;;;;5.7;4.2;;;;;;;17.42;66.73047;942.9207;;;;
2021/06/04 01:23:46;;;;;;;6.3;4.1;;;;;;;17.33;67.51855;943.0089;;;;
2021/06/04 01:26:11;;;;;;;5.9;4.7;;;;;;;17.23;67.9541;943.0009;;;;
2021/06/04 01:28:38;;;;;;;8.2;4.3;;;;;;;17.38;67.08594;943.0189;;;;
2021/06/04 01:31:01;;;;;;;8.6;4.2;;;;;;;17.37;66.75781;942.9602;;;;
2021/06/04 01:33:26;;;;;;;6.2;4.7;;;;;;;17.42;66.79004;943.0284;;;;
2021/06/04 01:35:51;;;;;;;6.3;4.3;;;;;;;17.45;66.75879;942.976;;;;
2021/06/04 01:38:19;;;;;;;6;4.3;;;;;;;17.48;66.91504;943.003;;;;
2021/06/04 01:40:45;;;;;;;7.2;4.2;;;;;;;17.5;66.74219;942.9803;;;;
2021/06/04 01:43:10;;;;;;;8.9;4.5;;;;;;;17.39;67.0625;943.0084;;;;
2021/06/04 01:45:35;;;;;;;5.5;4.3;;;;;;;17.18;67.88867;943.0477;;;;
2021/06/04 01:48:00;;;;;;;10.6;4.6;;;;;;;17.06;68.4375;943.002;;;;
2021/06/04 01:50:25;;;;;;;7.2;4.3;;;;;;;17.01;68.91699;943.0343;;;;
2021/06/04 01:52:50;;;;;;;6.8;4.3;;;;;;;17.02;68.89648;943.0603;;;;
2021/06/04 01:55:15;;;;;;;5.7;4.3;;;;;;;17.05;68.7959;943.044;;;;
2021/06/04 01:57:40;;;;;;;6.2;4.2;;;;;;;17.09;68.51367;943.05;;;;
2021/06/04 02:00:05;;;;;;;7.8;4.2;;;;;;;17.19;68.57422;943.0574;;;;
2021/06/04 02:02:31;;;;;;;11.8;4.8;;;;;;;17.34;68.6543;943.07;;;;
2021/06/04 02:04:58;;;;;;;11.9;5.2;;;;;;;17.42;67.75098;943.043;;;;
2021/06/04 02:07:23;;;;;;;6.1;4.4;;;;;;;17.4;67.85254;943.022;;;;
2021/06/04 02:09:49;;;;;;;9.2;4.5;;;;;;;17.35;68.00781;943.0836;;;;
2021/06/04 02:12:14;;;;;;;6.4;4.3;;;;;;;17.31;68.2334;943.0662;;;;
2021/06/04 02:14:41;;;;;;;5.3;3.9;;;;;;;17.28;68.19434;943.0697;;;;
2021/06/04 02:17:06;;;;;;;6.9;4.1;;;;;;;17.18;68.50293;942.9648;;;;
2021/06/04 02:19:32;;;;;;;6.3;4;;;;;;;17.14;68.57715;943.0513;;;;
2021/06/04 02:21:57;;;;;;;8.3;4.5;;;;;;;16.98;68.68066;943.0417;;;;
2021/06/04 02:24:22;;;;;;;11.8;4.7;;;;;;;16.97;69.00488;942.9824;;;;
2021/06/04 02:27:10;;;;;;;5.9;4.5;;;;;;;16.99;68.83301;942.9927;;;;
2021/06/04 02:29:35;;;;;;;7.3;4.5;;;;;;;16.91;69.19043;942.9739;;;;
2021/06/04 02:32:01;;;;;;;10.1;4.3;;;;;;;16.82;69.67578;942.9681;;;;
2021/06/04 02:34:25;;;;;;;7;4.5;;;;;;;16.79;70.27441;942.9406;;;;
2021/06/04 02:36:50;;;;;;;6.8;4.4;;;;;;;16.75;69.79102;943.0303;;;;
2021/06/04 02:39:16;;;;;;;7.9;4.5;;;;;;;16.75;69.8252;942.9626;;;;
2021/06/04 02:41:41;;;;;;;5.7;4.4;;;;;;;16.63;70.13086;942.9792;;;;
2021/06/04 02:44:06;;;;;;;5.7;4.1;;;;;;;16.5;70.53906;942.9258;;;;
2021/06/04 02:46:31;;;;;;;7.1;4.5;;;;;;;16.6;70.36816;942.9711;;;;
2021/06/04 02:48:56;;;;;;;7.7;4.4;;;;;;;16.71;70.35254;942.9653;;;;
2021/06/04 02:51:21;;;;;;;5.9;4.3;;;;;;;16.59;70.37988;942.9366;;;;
2021/06/04 02:53:46;;;;;;;7.6;4.1;;;;;;;16.54;70.74121;942.9185;;;;
2021/06/04 02:56:11;;;;;;;9.9;5.2;;;;;;;16.6;71.20313;942.955;;;;
2021/06/04 02:58:36;;;;;;;9.7;4.8;;;;;;;16.61;70.73047;942.9348;;;;
2021/06/04 03:01:02;;;;;;;8.7;4.6;;;;;;;16.64;70.38867;942.9389;;;;
2021/06/04 03:03:27;;;;;;;7.5;4.8;;;;;;;16.66;70.41406;943.0248;;;;
2021/06/04 03:05:52;;;;;;;6;4.3;;;;;;;16.47;71.14648;943.0225;;;;
2021/06/04 03:08:20;;;;;;;5.8;4.4;;;;;;;16.46;71.85156;943.0057;;;;
2021/06/04 03:10:44;;;;;;;8.1;4.3;;;;;;;16.53;71.30762;943.0511;;;;
2021/06/04 03:13:10;;;;;;;6.3;4.2;;;;;;;16.52;71.27148;943.0938;;;;
2021/06/04 03:15:40;;;;;;;5.3;4.3;;;;;;;16.4;71.5293;943.0869;;;;
2021/06/04 03:18:05;;;;;;;9.3;4.8;;;;;;;16.45;71.4209;943.1553;;;;
2021/06/04 03:20:30;;;;;;;6;4.2;;;;;;;16.39;71.73633;943.1423;;;;
2021/06/04 03:22:55;;;;;;;11.3;4.7;;;;;;;16.42;71.67188;943.1174;;;;
2021/06/04 03:25:22;;;;;;;5.6;4.4;;;;;;;16.46;71.60938;943.2372;;;;
2021/06/04 03:27:47;;;;;;;7;4.9;;;;;;;16.45;71.84766;943.2421;;;;
2021/06/04 03:30:14;;;;;;;5.8;4.5;;;;;;;16.42;71.85645;943.209;;;;
2021/06/04 03:32:39;;;;;;;9.7;5;;;;;;;16.5;71.69629;943.2137;;;;
2021/06/04 03:35:06;;;;;;;7.3;4.4;;;;;;;16.52;71.58398;943.2731;;;;
2021/06/04 03:37:32;;;;;;;7.3;4.6;;;;;;;16.62;71.46094;943.2978;;;;
2021/06/04 03:39:57;;;;;;;9;4.5;;;;;;;16.75;71.01855;943.3237;;;;
2021/06/04 03:42:23;;;;;;;12;4.4;;;;;;;16.8;70.45898;943.2985;;;;
2021/06/04 03:44:49;;;;;;;5.1;4.6;;;;;;;16.5;70.74707;943.2989;;;;
2021/06/04 03:47:15;;;;;;;8.9;4.9;;;;;;;16.34;71.72754;943.3219;;;;
2021/06/04 03:49:40;;;;;;;11;4.8;;;;;;;16.34;71.83203;943.2834;;;;
2021/06/04 03:52:08;;;;;;;11.6;5;;;;;;;16.5;71.16211;943.2498;;;;
2021/06/04 03:54:32;;;;;;;8.1;4.6;;;;;;;16.58;70.81641;943.288;;;;
2021/06/04 03:56:57;;;;;;;6.7;4.3;;;;;;;16.65;70.05273;943.2742;;;;
2021/06/04 03:59:22;;;;;;;7.1;4.2;;;;;;;16.65;70.28613;943.2976;;;;
2021/06/04 04:02:28;;;;;;;7.2;4.9;;;;;;;16.72;70.2959;943.2355;;;;
2021/06/04 04:04:57;;;;;;;6.6;4.6;;;;;;;16.81;70.20703;943.2816;;;;
2021/06/04 04:07:18;;;;;;;12.7;5.2;;;;;;;16.87;70.1123;943.2775;;;;
2021/06/04 04:09:48;;;;;;;9.8;4.9;;;;;;;16.88;70.19434;943.2686;;;;
2021/06/04 04:12:18;;;;;;;8.1;4.7;;;;;;;16.93;70.02832;943.224;;;;
2021/06/04 04:14:42;;;;;;;7.9;4.1;;;;;;;17.01;69.62402;943.2595;;;;
2021/06/04 04:17:09;;;;;;;6.5;4.4;;;;;;;17.14;69.09863;943.2726;;;;
2021/06/04 04:19:38;;;;;;;5.4;4;;;;;;;17.16;68.97461;943.2917;;;;
2021/06/04 04:22:05;;;;;;;8.5;4.2;;;;;;;17.3;68.87109;943.3167;;;;
2021/06/04 04:24:30;;;;;;;8.6;4.7;;;;;;;17.29;68.69434;943.3667;;;;
2021/06/04 04:26:55;;;;;;;4.4;4;;;;;;;17.29;68.20703;943.4174;;;;
2021/06/04 04:29:22;;;;;;;11.9;4.5;;;;;;;17.31;68.30273;943.41;;;;
2021/06/04 04:31:47;;;;;;;9.7;4.6;;;;;;;17.17;68.85059;943.4067;;;;
2021/06/04 04:34:12;;;;;;;7.2;4.5;;;;;;;17.27;68.65527;943.4224;;;;
2021/06/04 04:37:11;;;;;;;5.1;4.1;;;;;;;17.36;67.92871;943.3395;;;;
2021/06/04 04:39:36;;;;;;;5.2;3.8;;;;;;;17.31;67.79199;943.4236;;;;
2021/06/04 04:42:01;;;;;;;5.5;3.9;;;;;;;17.33;68.06348;943.4122;;;;
2021/06/04 04:44:26;;;;;;;7.8;4.1;;;;;;;17.32;68.54883;943.4219;;;;
2021/06/04 04:46:51;;;;;;;6.3;4.4;;;;;;;17.28;67.23145;943.3965;;;;
2021/06/04 04:49:18;;;;;;;7.7;4;;;;;;;17.22;67.61719;943.3849;;;;
2021/06/04 04:51:43;;;;;;;5.8;4.4;;;;;;;17.43;67.56836;943.4447;;;;
2021/06/04 04:54:10;;;;;;;10;4.5;;;;;;;17.57;67.02051;943.4056;;;;
2021/06/04 04:56:35;;;;;;;5.9;4.2;;;;;;;17.66;66.96484;943.3745;;;;
2021/06/04 04:59:03;;;;;;;10.6;4.3;;;;;;;17.7;67.06445;943.367;;;;
2021/06/04 05:01:29;;;;;;;9.7;4.9;;;;;;;17.87;67.04297;943.3504;;;;
2021/06/04 05:03:53;;;;;;;8.5;4.6;;;;;;;18.03;66.35938;943.3868;;;;
2021/06/04 05:06:18;;;;;;;9.5;5;;;;;;;18.22;66.94629;943.4623;;;;
2021/06/04 05:08:46;;;;;;;12.2;5.3;;;;;;;18.21;65.69922;943.4227;;;;
2021/06/04 05:11:10;;;;;;;10.6;4.4;;;;;;;18.07;65.45996;943.4459;;;;
2021/06/04 05:13:36;;;;;;;5.6;3.8;;;;;;;17.97;64.72461;943.4412;;;;
2021/06/04 05:16:04;;;;;;;6;4.1;;;;;;;17.96;65.29297;943.3792;;;;
2021/06/04 05:18:29;;;;;;;7.4;3.9;;;;;;;17.86;65.33496;943.4334;;;;
2021/06/04 05:20:55;;;;;;;8.4;3.9;;;;;;;18.1;64.99902;943.4456;;;;
2021/06/04 05:23:21;;;;;;;5.7;3.8;;;;;;;18.23;63.55371;943.4509;;;;
2021/06/04 05:25:46;;;;;;;7.5;3.9;;;;;;;18.39;63.1709;943.3869;;;;
2021/06/04 05:28:13;;;;;;;5.2;3.8;;;;;;;18.39;63.03027;943.4344;;;;
2021/06/04 05:30:40;;;;;;;6.4;4.4;;;;;;;18.57;64.45215;943.4623;;;;
2021/06/04 05:33:05;;;;;;;6.8;4.4;;;;;;;18.99;64.36133;943.4808;;;;
2021/06/04 05:35:30;;;;;;;11.4;5;;;;;;;19.2;61.44531;943.5417;;;;
2021/06/04 05:37:58;;;;;;;8.1;4.6;;;;;;;19.03;60.89844;943.5338;;;;
2021/06/04 05:40:24;;;;;;;13.1;4.9;;;;;;;19.1;62.25977;943.5481;;;;
2021/06/04 05:42:49;;;;;;;12.3;4.8;;;;;;;19.22;60.91309;943.6013;;;;
2021/06/04 05:45:15;;;;;;;9.6;4.4;;;;;;;19.31;60.83301;943.5961;;;;
2021/06/04 05:47:39;;;;;;;7.2;4.3;;;;;;;19.28;60.44336;943.5779;;;;
2021/06/04 05:50:08;;;;;;;10.2;4.2;;;;;;;19.45;59.67578;943.6119;;;;
2021/06/04 05:52:33;;;;;;;6.7;3.5;;;;;;;19.54;60.15234;943.53;;;;
2021/06/04 05:54:59;;;;;;;9.9;4.7;;;;;;;19.58;60.32227;943.6166;;;;
2021/06/04 05:57:24;;;;;;;6.5;3.8;;;;;;;19.61;60.31445;943.6016;;;;
2021/06/04 05:59:50;;;;;;;5.3;3.6;;;;;;;19.8;60.21191;943.5977;;;;
2021/06/04 06:02:17;;;;;;;8.5;4.2;;;;;;;19.94;59.32031;943.5786;;;;
2021/06/04 06:04:42;;;;;;;8;4.4;;;;;;;20.07;60.09668;943.5547;;;;
2021/06/04 06:07:09;;;;;;;9.4;4;;;;;;;20.05;58.79883;943.58;;;;
2021/06/04 06:09:33;;;;;;;7;3.8;;;;;;;20.2;59.25;943.6071;;;;
2021/06/04 06:12:00;;;;;;;7.6;3.7;;;;;;;20.18;58.94531;943.6568;;;;
2021/06/04 06:14:26;;;;;;;5.7;3.8;;;;;;;20.33;59.02344;943.673;;;;
2021/06/04 06:16:52;;;;;;;6.8;3.6;;;;;;;20.48;58.30664;943.6277;;;;
2021/06/04 06:19:17;;;;;;;8.4;3.9;;;;;;;20.44;57.41406;943.7101;;;;
2021/06/04 06:21:45;;;;;;;5.2;3.5;;;;;;;20.51;56.99121;943.6415;;;;
2021/06/04 06:24:10;;;;;;;9.4;3.8;;;;;;;20.4;58.30859;943.6795;;;;
2021/06/04 06:26:37;;;;;;;9.8;4.3;;;;;;;20.58;58.70508;943.6369;;;;
2021/06/04 06:29:02;;;;;;;11;4.6;;;;;;;20.59;56.76855;943.6464;;;;
2021/06/04 06:31:27;;;;;;;10;4.1;;;;;;;20.57;56.25195;943.6063;;;;
2021/06/04 06:33:53;;;;;;;6.7;3.7;;;;;;;20.62;56.16406;943.6078;;;;
2021/06/04 06:36:21;;;;;;;5.8;4.2;;;;;;;20.63;56.08398;943.6483;;;;
2021/06/04 06:38:44;;;;;;;7.5;3.8;;;;;;;20.9;56.71387;943.6599;;;;
2021/06/04 06:41:09;;;;;;;6.9;3.7;;;;;;;21.11;56.88184;943.6951;;;;
2021/06/04 06:43:34;;;;;;;7.2;3.6;;;;;;;21.29;57.06738;943.7007;;;;
2021/06/04 06:45:59;;;;;;;6.6;3.6;;;;;;;21.44;55.60156;943.596;;;;
2021/06/04 06:48:25;;;;;;;9.9;4;;;;;;;21.56;57.5127;943.7229;;;;
2021/06/04 06:50:50;;;;;;;5.2;3.9;;;;;;;21.79;56.78027;943.7338;;;;
2021/06/04 06:53:17;;;;;;;4.7;3.9;;;;;;;22.05;54.63379;943.7589;;;;
2021/06/04 06:55:42;;;;;;;5.6;3.8;;;;;;;22.23;53.24902;943.7015;;;;
2021/06/04 06:58:10;;;;;;;7.2;3.3;;;;;;;22.34;53.54492;943.7795;;;;
2021/06/04 07:00:35;;;;;;;7.1;4.1;;;;;;;22.28;51.16797;943.765;;;;
2021/06/04 07:03:02;;;;;;;6.8;3.4;;;;;;;21.82;51.61914;943.8076;;;;
2021/06/04 07:05:28;;;;;;;6.4;3.8;;;;;;;21.8;52.7168;943.872;;;;
2021/06/04 07:07:57;;;;;;;6.1;3.6;;;;;;;21.82;52.88379;943.8254;;;;
2021/06/04 07:10:22;;;;;;;5.2;3.4;;;;;;;21.9;52.25977;943.8739;;;;
2021/06/04 07:12:49;;;;;;;3.9;3.2;;;;;;;21.81;53.11621;943.9011;;;;
2021/06/04 07:15:14;;;;;;;10.7;3.8;;;;;;;21.47;54.10742;943.8878;;;;
2021/06/04 07:17:41;;;;;;;4.4;3.4;;;;;;;21.39;53.65137;943.8814;;;;
2021/06/04 07:20:07;;;;;;;4.6;3.4;;;;;;;21.53;54.47656;943.8986;;;;
2021/06/04 07:22:34;;;;;;;6.2;3.9;;;;;;;21.98;55.9502;943.9408;;;;
2021/06/04 07:24:59;;;;;;;5.9;3.7;;;;;;;22.25;52.52539;943.9565;;;;
2021/06/04 07:27:25;;;;;;;6;3.6;;;;;;;22.48;51.55469;943.983;;;;
2021/06/04 07:29:49;;;;;;;7;3.7;;;;;;;22.59;50.45313;943.9377;;;;
2021/06/04 07:32:15;;;;;;;6.2;3.5;;;;;;;22.52;50.9248;943.9099;;;;
2021/06/04 07:34:40;;;;;;;5.9;3.7;;;;;;;22.85;53.20605;943.9281;;;;
2021/06/04 07:37:06;;;;;;;6.5;3.3;;;;;;;23.18;51.92871;943.878;;;;
2021/06/04 07:39:32;;;;;;;5.4;3.9;;;;;;;23.54;50.45508;943.9406;;;;
2021/06/04 07:42:24;;;;;;;6;3.6;;;;;;;23.75;48.71387;943.9522;;;;
2021/06/04 07:44:50;;;;;;;3.8;3.4;;;;;;;24.01;48.70605;943.9293;;;;
2021/06/04 07:47:15;;;;;;;5.7;3.3;;;;;;;24.16;48.18066;943.9092;;;;
2021/06/04 07:49:43;;;;;;;4.7;3.3;;;;;;;24.29;48.55957;943.8686;;;;
2021/06/04 07:52:08;;;;;;;5.2;3.3;;;;;;;24.52;45.4502;943.8675;;;;
2021/06/04 07:54:34;;;;;;;4.4;3.4;;;;;;;24.79;44.65332;943.8831;;;;
2021/06/04 07:57:00;;;;;;;4.5;3;;;;;;;25.05;44.14648;943.8493;;;;
2021/06/04 07:59:25;;;;;;;6.3;3.7;;;;;;;25.21;45.5791;943.8063;;;;
2021/06/04 08:01:53;;;;;;;5.4;3.6;;;;;;;25.3;43.74707;943.7949;;;;
2021/06/04 08:04:18;;;;;;;5.3;3.5;;;;;;;24.78;44.43848;943.7572;;;;
2021/06/04 08:06:45;;;;;;;6.4;3.7;;;;;;;25.17;44.84375;943.7361;;;;
2021/06/04 08:09:11;;;;;;;5.4;3.9;;;;;;;25.36;46.04297;943.7374;;;;
2021/06/04 08:11:36;;;;;;;5.8;3.8;;;;;;;25.54;46.62891;943.7408;;;;
2021/06/04 08:14:31;;;;;;;4.5;3.4;;;;;;;25.66;44.86914;943.7878;;;;
2021/06/04 08:16:58;;;;;;;5.6;3.8;;;;;;;25.63;45.26758;943.7573;;;;
2021/06/04 08:19:21;;;;;;;7.6;3.6;;;;;;;25.8;43.32227;943.7123;;;;
2021/06/04 08:21:48;;;;;;;4.9;3.4;;;;;;;25.77;44.62012;943.7117;;;;
2021/06/04 08:24:13;;;;;;;8;3.8;;;;;;;26.01;43.93457;943.7416;;;;
2021/06/04 08:26:41;;;;;;;4.4;3.3;;;;;;;26.1;41.91992;943.7952;;;;
2021/06/04 08:29:06;;;;;;;5.7;3.5;;;;;;;26.24;43.3418;943.7855;;;;
2021/06/04 08:31:32;;;;;;;5.6;4.3;;;;;;;26.36;42.09766;943.7464;;;;
2021/06/04 08:33:57;;;;;;;5.5;3.8;;;;;;;26.55;43.28906;943.7514;;;;
2021/06/04 08:36:22;;;;;;;9.3;3.6;;;;;;;26.67;40.68359;943.7159;;;;
2021/06/04 08:38:47;;;;;;;5.6;3.5;;;;;;;26.79;41.67676;943.613;;;;
2021/06/04 08:41:14;;;;;;;6.6;3.4;;;;;;;26.83;41.88184;943.6495;;;;
2021/06/04 08:43:39;;;;;;;5.5;3.7;;;;;;;27.3;41.22559;943.6225;;;;
2021/06/04 08:46:04;;;;;;;4.9;3.6;;;;;;;27.23;43.54492;943.6409;;;;
2021/06/04 08:48:30;;;;;;;5.3;3.6;;;;;;;27.8;42.80371;943.6174;;;;
2021/06/04 08:50:56;;;;;;;7.1;3.7;;;;;;;27.82;42.65039;943.5566;;;;
2021/06/04 08:53:20;;;;;;;4.2;3.5;;;;;;;28.18;42.30469;943.5391;;;;
2021/06/04 08:55:45;;;;;;;5.5;3.8;;;;;;;28.53;40.83887;943.4861;;;;
2021/06/04 08:58:10;;;;;;;4.8;3.3;;;;;;;29.46;37.55078;943.4928;;;;
2021/06/04 09:00:35;;;;;;;11.5;3.6;;;;;;;29.89;36.63281;943.5092;;;;
2021/06/04 09:03:02;;;;;;;14;4.1;;;;;;;30.02;38.27734;943.5673;;;;
2021/06/04 09:05:26;;;;;;;5.5;3;;;;;;;30.72;33.01855;943.5162;;;;
2021/06/04 09:07:51;;;;;;;4.5;3.1;;;;;;;31.02;33.25586;943.5711;;;;
2021/06/04 09:10:16;;;;;;;6.7;3.4;;;;;;;30.66;33.88672;943.5942;;;;
2021/06/04 09:12:41;;;;;;;7.6;3.4;;;;;;;31.31;32.48828;943.5549;;;;
2021/06/04 09:15:10;;;;;;;3.5;3.2;;;;;;;31.55;30.73242;943.562;;;;
2021/06/04 09:17:35;;;;;;;5.3;3.3;;;;;;;30.59;33.77441;943.5117;;;;
2021/06/04 09:20:00;;;;;;;5.5;3.4;;;;;;;30.93;35.00684;943.4875;;;;
2021/06/04 09:22:25;;;;;;;5;3.3;;;;;;;30.76;34.45605;943.4788;;;;
2021/06/04 09:24:51;;;;;;;5;3.4;;;;;;;30.52;35.04785;943.5289;;;;
2021/06/04 09:27:15;;;;;;;8.6;3.6;;;;;;;29.83;35.33984;943.4984;;;;
2021/06/04 09:29:40;;;;;;;4;3.2;;;;;;;30.2;33.95996;943.4402;;;;
2021/06/04 09:32:08;;;;;;;3.4;2.9;;;;;;;30.75;31.96875;943.415;;;;
2021/06/04 09:34:34;;;;;;;4.7;3.1;;;;;;;30.26;35.01465;943.4047;;;;
2021/06/04 09:36:58;;;;;;;3.4;3.1;;;;;;;30.02;34.80566;943.3981;;;;
2021/06/04 09:39:23;;;;;;;4.9;3.1;;;;;;;29.87;35.15137;943.4161;;;;
2021/06/04 09:41:48;;;;;;;3.3;3;;;;;;;30.08;33.7002;943.3987;;;;
2021/06/04 09:44:14;;;;;;;4;2.8;;;;;;;30.4;33.78418;943.3834;;;;
2021/06/04 09:46:38;;;;;;;6.9;3.2;;;;;;;30.27;34.50293;943.3837;;;;
2021/06/04 09:49:04;;;;;;;3.4;2.9;;;;;;;29.91;34.5459;943.3563;;;;
2021/06/04 09:51:30;;;;;;;3.4;3.1;;;;;;;30.03;33.94727;943.2891;;;;
2021/06/04 09:53:56;;;;;;;3.3;3;;;;;;;29.31;35.2627;943.2363;;;;
2021/06/04 09:56:22;;;;;;;5.9;3.2;;;;;;;29.72;36.98828;943.1891;;;;
2021/06/04 09:58:48;;;;;;;4.9;3.6;;;;;;;30.39;36.00391;943.1834;;;;
2021/06/04 10:01:15;;;;;;;4;3;;;;;;;30.07;35.70508;943.2117;;;;
2021/06/04 10:03:38;;;;;;;6.2;3.3;;;;;;;29.46;36.86035;943.1934;;;;
2021/06/04 10:06:03;;;;;;;4.2;2.9;;;;;;;29.14;36.14355;943.1509;;;;
2021/06/04 10:08:29;;;;;;;6;3;;;;;;;28.92;37.14941;943.106;;;;
2021/06/04 10:10:53;;;;;;;3.2;2.9;;;;;;;28.09;41.19141;943.0736;;;;
2021/06/04 10:13:18;;;;;;;4.8;3.2;;;;;;;28.37;40.47949;943.0451;;;;
2021/06/04 10:15:45;;;;;;;6.9;4.1;;;;;;;28.57;38.82129;943.0173;;;;
2021/06/04 10:18:09;;;;;;;4.1;3.1;;;;;;;28.5;40.89551;943.0377;;;;
2021/06/04 10:20:34;;;;;;;3.5;3.1;;;;;;;27.46;42.18945;942.9788;;;;
2021/06/04 10:22:59;;;;;;;4.6;3.6;;;;;;;27.25;42.69141;942.9998;;;;
2021/06/04 10:25:24;;;;;;;4.4;3.2;;;;;;;27.52;41.19824;942.9644;;;;
2021/06/04 10:27:49;;;;;;;7.4;3.5;;;;;;;27.95;40.03809;943.0003;;;;
2021/06/04 10:30:15;;;;;;;4.8;3.1;;;;;;;28.33;40.04883;942.9774;;;;
2021/06/04 10:32:40;;;;;;;4.1;3;;;;;;;27.92;41.1875;942.9249;;;;
2021/06/04 10:35:05;;;;;;;3.2;2.9;;;;;;;27.78;40.37988;942.9666;;;;
2021/06/04 10:37:30;;;;;;;5.2;3.3;;;;;;;27.69;40.97754;942.9235;;;;
2021/06/04 10:39:55;;;;;;;4.2;3.8;;;;;;;27.18;46.28906;942.9172;;;;
2021/06/04 10:42:20;;;;;;;5;3.2;;;;;;;27.35;43.81641;942.8472;;;;
2021/06/04 10:44:46;;;;;;;6.6;3.8;;;;;;;27.16;43.77441;942.8469;;;;
2021/06/04 10:47:12;;;;;;;3.7;3.4;;;;;;;27.02;44.94531;942.7905;;;;
2021/06/04 10:49:40;;;;;;;4.2;3.6;;;;;;;27.02;44.92188;942.782;;;;
2021/06/04 10:52:05;;;;;;;5.1;3.3;;;;;;;27.03;44.84082;942.7319;;;;
2021/06/04 10:54:30;;;;;;;4.8;3.2;;;;;;;27.05;44.66309;942.7991;;;;
2021/06/04 10:56:55;;;;;;;4.8;3.4;;;;;;;27.43;44.32227;942.7517;;;;
2021/06/04 10:59:20;;;;;;;3.8;3.4;;;;;;;27.33;46.99316;942.7269;;;;
2021/06/04 11:01:45;;;;;;;5.1;3.6;;;;;;;27.4;44.34277;942.7204;;;;
2021/06/04 11:25:16;;;;;;;9;3.6;;;;;;;28.01;45.85254;942.5207;;;;
2021/06/04 11:27:40;;;;;;;4.7;3;;;;;;;28.84;40.28418;942.5176;;;;
2021/06/04 11:30:05;;;;;;;4.9;3.5;;;;;;;28.9;43.28906;942.5087;;;;
2021/06/04 11:32:30;;;;;;;4.6;3.3;;;;;;;29.18;41.55371;942.4918;;;;
2021/06/04 11:34:57;;;;;;;3.7;3.2;;;;;;;28.86;43.01172;942.4494;;;;
2021/06/04 11:37:22;;;;;;;4;3.1;;;;;;;29.35;39.71094;942.3822;;;;
2021/06/04 11:39:51;;;;;;;3.7;2.9;;;;;;;29.46;39.17188;942.3848;;;;
2021/06/04 11:42:16;;;;;;;4.8;3;;;;;;;29.45;41.75781;942.3967;;;;
2021/06/04 11:44:43;;;;;;;5.1;3.1;;;;;;;28.93;41.95898;942.2854;;;;
2021/06/04 11:47:06;;;;;;;4;3.3;;;;;;;27.92;43.34961;942.3392;;;;
2021/06/04 11:49:32;;;;;;;4.4;3.2;;;;;;;27.83;42.39063;942.2505;;;;
2021/06/04 11:51:57;;;;;;;3.8;3.1;;;;;;;28.14;40.81543;942.1964;;;;
2021/06/04 11:54:23;;;;;;;3.4;2.9;;;;;;;27.59;43.44824;942.195;;;;
2021/06/04 11:56:49;;;;;;;4.8;3.3;;;;;;;27.56;43.44434;942.1981;;;;
2021/06/04 11:59:14;;;;;;;7;3.4;;;;;;;27.07;44.23926;942.2216;;;;
2021/06/04 12:01:39;;;;;;;3.4;3.1;;;;;;;26.49;44.78711;942.228;;;;
2021/06/04 12:04:06;;;;;;;5.2;3.2;;;;;;;26.69;43.30176;942.238;;;;
2021/06/04 12:06:30;;;;;;;4.4;3.2;;;;;;;26.51;44.21973;942.14;;;;
2021/06/04 12:08:58;;;;;;;5.5;3.7;;;;;;;26.3;46.42383;942.2133;;;;
2021/06/04 12:11:29;;;;;;;9.4;3.9;;;;;;;26.49;45.14258;942.1348;;;;
2021/06/04 12:13:56;;;;;;;8.1;3.7;;;;;;;26.08;46.61426;942.1707;;;;
2021/06/04 12:16:22;;;;;;;5.3;3.9;;;;;;;26.17;44.68359;942.0966;;;;
2021/06/04 12:18:48;;;;;;;4.7;3.6;;;;;;;26.19;45.29004;942.1492;;;;
2021/06/04 12:21:13;;;;;;;5.1;3.3;;;;;;;26.41;45.58301;942.1392;;;;
2021/06/04 12:23:40;;;;;;;4.6;3.5;;;;;;;26.26;44.72852;942.1375;;;;
2021/06/04 12:26:05;;;;;;;3.7;3.3;;;;;;;25.98;45.33887;942.1487;;;;
2021/06/04 12:28:30;;;;;;;5.9;3.8;;;;;;;25.69;47.53027;942.1603;;;;
2021/06/04 12:30:55;;;;;;;5.2;3.5;;;;;;;26.12;46.72461;942.0964;;;;
2021/06/04 12:33:20;;;;;;;4.1;3.5;;;;;;;26.35;46.6543;942.0447;;;;
2021/06/04 12:36:49;;;;;;;8;3.9;;;;;;;26.41;47.28711;942.0592;;;;
2021/06/04 12:39:14;;;;;;;4.2;3.4;;;;;;;26.05;48.13672;942.0773;;;;
2021/06/04 12:41:41;;;;;;;5.6;3.4;;;;;;;26.23;46.80762;942.0563;;;;
2021/06/04 12:44:06;;;;;;;6.8;3.1;;;;;;;26.59;44.8916;942.0363;;;;
2021/06/04 12:46:31;;;;;;;4.6;3.1;;;;;;;26.72;45.56738;942.0502;;;;
2021/06/04 12:49:00;;;;;;;4.8;3.2;;;;;;;26.67;46.86523;942.1105;;;;
2021/06/04 12:51:25;;;;;;;3.9;3.4;;;;;;;26.87;46.54102;942.1131;;;;
2021/06/04 12:53:56;;;;;;;3.5;3.2;;;;;;;26.84;44.62012;942.1575;;;;
2021/06/04 12:56:21;;;;;;;5.4;3.8;;;;;;;26.55;45.00586;942.0441;;;;
2021/06/04 12:58:47;;;;;;;4.5;3.2;;;;;;;26.49;48.74023;942.1358;;;;
2021/06/04 13:01:13;;;;;;;5.4;3.4;;;;;;;26.83;46.30176;942.1211;;;;
2021/06/04 13:03:38;;;;;;;7;3.5;;;;;;;26.33;47.18555;942.1179;;;;
2021/06/04 13:06:03;;;;;;;3.6;3.1;;;;;;;26.46;44.7002;942.0963;;;;
2021/06/04 13:08:30;;;;;;;4;3.3;;;;;;;26.33;47.61035;942.1263;;;;
2021/06/04 13:10:56;;;;;;;3.4;3.1;;;;;;;26.5;45.53418;942.0446;;;;
2021/06/04 13:13:21;;;;;;;4.3;3.5;;;;;;;26.01;47.30469;942.0715;;;;
2021/06/04 13:15:50;;;;;;;7;3.9;;;;;;;25.93;49.82617;941.9819;;;;
2021/06/04 13:18:18;;;;;;;4.8;3.4;;;;;;;25.9;48.51074;941.9953;;;;
2021/06/04 13:20:43;;;;;;;4.9;3.3;;;;;;;25.92;49.66016;941.9944;;;;
2021/06/04 13:23:08;;;;;;;3.9;3.5;;;;;;;25.82;48.70313;941.9562;;;;
2021/06/04 13:25:35;;;;;;;6.2;4.1;;;;;;;26.16;47.16602;941.9788;;;;
2021/06/04 13:28:00;;;;;;;4.9;3.5;;;;;;;26.26;46.72754;941.9996;;;;
2021/06/04 13:30:25;;;;;;;6.4;3.8;;;;;;;26.14;45.76953;941.9785;;;;
2021/06/04 13:32:50;;;;;;;9.8;3.6;;;;;;;26.04;46.59863;941.9439;;;;
2021/06/04 13:35:15;;;;;;;7.4;3.6;;;;;;;25.71;46.59961;941.9659;;;;
2021/06/04 13:37:40;;;;;;;3.9;3.1;;;;;;;25.95;45.39453;941.9533;;;;
2021/06/04 13:40:07;;;;;;;4.9;3.5;;;;;;;26.04;44.94238;941.8739;;;;
2021/06/04 13:42:31;;;;;;;5.3;3.4;;;;;;;25.86;46.63867;941.8594;;;;
2021/06/04 13:44:56;;;;;;;3.8;3.5;;;;;;;25.61;47.68848;941.8325;;;;
2021/06/04 13:47:22;;;;;;;5.3;3.7;;;;;;;25.14;49.36133;941.891;;;;
2021/06/04 13:49:47;;;;;;;4.5;3.4;;;;;;;25.1;47.53906;941.8652;;;;
2021/06/04 13:52:14;;;;;;;5;3.6;;;;;;;25.25;47.98047;941.8818;;;;
2021/06/04 13:54:39;;;;;;;7.4;4;;;;;;;24.8;49.7832;941.8974;;;;
2021/06/04 13:57:05;;;;;;;6.3;4.3;;;;;;;24.7;50.45605;941.9037;;;;
2021/06/04 13:59:32;;;;;;;5.7;4.1;;;;;;;24.33;51.81738;942.0372;;;;
2021/06/04 14:01:57;;;;;;;9.2;4.8;;;;;;;24.37;51.93848;942.0725;;;;
2021/06/04 14:04:24;;;;;;;7.8;4;;;;;;;24.27;52.91602;942.11;;;;
2021/06/04 14:06:50;;;;;;;6.5;3.9;;;;;;;24.64;51.80566;942.1782;;;;
2021/06/04 14:09:20;;;;;;;6.4;4.4;;;;;;;24.52;51.85059;942.2039;;;;
2021/06/04 14:11:41;;;;;;;5.1;4.1;;;;;;;24.48;52.26953;942.2249;;;;
2021/06/04 14:14:06;;;;;;;8.9;4.2;;;;;;;24.64;51.24023;942.3141;;;;
2021/06/04 14:16:34;;;;;;;7.4;4.5;;;;;;;24.39;52.07129;942.3411;;;;
2021/06/04 14:18:59;;;;;;;8;4.2;;;;;;;24.5;52.11816;942.3201;;;;
2021/06/04 14:21:25;;;;;;;5.6;3.9;;;;;;;24.42;51.35449;942.2905;;;;
2021/06/04 14:23:49;;;;;;;6.1;4;;;;;;;24.57;51.96191;942.3549;;;;
2021/06/04 14:26:14;;;;;;;5.8;4.1;;;;;;;24.6;51.75293;942.3849;;;;
2021/06/04 14:28:39;;;;;;;5.1;4.1;;;;;;;24.64;52.99609;942.3739;;;;
2021/06/04 14:31:16;;;;;;;10.3;4.9;;;;;;;24.53;53.1123;942.4175;;;;
2021/06/04 14:33:39;;;;;;;7.7;4.4;;;;;;;24.16;54.10449;942.4297;;;;
2021/06/04 14:36:03;;;;;;;8.9;4.7;;;;;;;23.54;56.59473;942.4615;;;;
2021/06/04 14:38:29;;;;;;;6.4;4.5;;;;;;;23;57.09961;942.3892;;;;
2021/06/04 14:40:54;;;;;;;6.9;4.8;;;;;;;22.91;57.26563;942.4497;;;;
2021/06/04 14:43:19;;;;;;;8.3;5;;;;;;;22.52;59.72559;942.5056;;;;
2021/06/04 14:45:44;;;;;;;7.6;4.8;;;;;;;22.75;58.8418;942.5516;;;;
2021/06/04 14:48:10;;;;;;;14.5;4.9;;;;;;;23.05;57.83691;942.4706;;;;
2021/06/04 14:50:36;;;;;;;5;4.2;;;;;;;23.15;57.84961;942.5219;;;;
2021/06/04 14:53:11;;;;;;;6.3;4.4;;;;;;;23.26;56.78125;942.4855;;;;
2021/06/04 14:55:37;;;;;;;8;5.5;;;;;;;22.65;57.79492;942.4059;;;;